createdAt,value
2023-05-10T00:01:34.079Z,6.68
2023-05-10T00:04:34.083Z,6.68
2023-05-10T00:07:34.077Z,6.66
2023-05-10T00:10:34.097Z,6.67
2023-05-10T00:13:34.086Z,6.66
2023-05-10T00:16:34.125Z,6.69
2023-05-10T00:19:34.098Z,6.68
2023-05-10T00:22:34.088Z,6.71
2023-05-10T00:25:34.100Z,6.71
2023-05-10T00:28:34.090Z,6.69
2023-05-10T00:31:34.128Z,6.71
2023-05-10T00:34:34.114Z,6.72
2023-05-10T00:37:34.094Z,6.72
2023-05-10T00:40:34.107Z,6.69
2023-05-10T00:43:34.094Z,6.71
2023-05-10T00:46:34.093Z,6.73
2023-05-10T00:49:34.094Z,6.7
2023-05-10T00:52:34.095Z,6.7
2023-05-10T00:55:34.109Z,6.69
2023-05-10T00:58:34.101Z,6.7
2023-05-10T01:01:34.139Z,6.71
2023-05-10T01:04:34.135Z,6.7
2023-05-10T01:07:34.103Z,6.73
2023-05-10T01:10:34.137Z,6.7
2023-05-10T01:13:34.105Z,6.65
2023-05-10T01:16:34.265Z,6.67
2023-05-10T01:19:34.107Z,6.68
2023-05-10T01:22:34.113Z,6.68
2023-05-10T01:25:34.125Z,6.67
2023-05-10T01:28:34.116Z,6.71
2023-05-10T01:31:34.139Z,6.67
2023-05-10T01:34:34.124Z,6.71
2023-05-10T01:37:34.125Z,6.7
2023-05-10T01:40:34.127Z,6.74
2023-05-10T01:43:34.117Z,6.73
2023-05-10T01:46:34.143Z,6.74
2023-05-10T01:49:34.127Z,6.72
2023-05-10T01:52:34.123Z,6.75
2023-05-10T01:55:34.132Z,6.75
2023-05-10T01:58:34.122Z,6.77
2023-05-10T02:01:34.126Z,6.77
2023-05-10T02:04:34.129Z,6.75
2023-05-10T02:07:34.149Z,6.74
2023-05-10T02:10:34.140Z,6.76
2023-05-10T02:13:34.126Z,6.79
2023-05-10T02:16:34.149Z,6.76
2023-05-10T02:19:34.126Z,6.78
2023-05-10T02:22:34.134Z,6.79
2023-05-10T02:25:34.146Z,6.79
2023-05-10T02:28:34.133Z,6.82
2023-05-10T02:31:34.157Z,6.82
2023-05-10T02:34:34.141Z,6.8
2023-05-10T02:37:34.150Z,6.84
2023-05-10T02:40:34.150Z,6.85
2023-05-10T02:43:34.153Z,6.84
2023-05-10T02:46:34.194Z,6.85
2023-05-10T02:49:34.150Z,6.83
2023-05-10T02:52:34.156Z,6.84
2023-05-10T02:55:34.184Z,6.86
2023-05-10T02:58:34.173Z,6.87
2023-05-10T03:01:34.237Z,6.85
2023-05-10T03:04:34.170Z,6.85
2023-05-10T03:07:34.171Z,6.88
2023-05-10T03:10:34.169Z,6.89
2023-05-10T03:13:34.185Z,6.89
2023-05-10T03:16:34.205Z,6.89
2023-05-10T03:19:34.172Z,6.9
2023-05-10T03:22:34.169Z,6.9
2023-05-10T03:25:34.176Z,6.9
2023-05-10T03:28:34.186Z,6.94
2023-05-10T03:31:34.200Z,6.93
2023-05-10T03:34:34.177Z,6.93
2023-05-10T03:37:34.176Z,6.93
2023-05-10T03:40:34.185Z,6.93
2023-05-10T03:43:34.174Z,6.93
2023-05-10T03:46:34.198Z,6.96
2023-05-10T03:49:34.187Z,6.95
2023-05-10T03:52:34.182Z,6.97
2023-05-10T03:55:34.189Z,6.96
2023-05-10T03:58:34.184Z,6.96
2023-05-10T04:01:34.187Z,6.97
2023-05-10T04:04:34.190Z,6.98
2023-05-10T04:07:34.196Z,6.98
2023-05-10T04:10:34.317Z,6.98
2023-05-10T04:13:34.190Z,7.02
2023-05-10T04:16:34.200Z,7.01
2023-05-10T04:19:34.197Z,7.04
2023-05-10T04:22:34.203Z,7.05
2023-05-10T04:25:34.243Z,7.08
2023-05-10T04:28:34.218Z,7.08
2023-05-10T04:31:34.210Z,7.08
2023-05-10T04:34:34.212Z,7.07
2023-05-10T04:37:34.225Z,7.07
2023-05-10T04:40:34.498Z,7.12
2023-05-10T04:43:34.229Z,7.12
2023-05-10T04:46:34.266Z,7.15
2023-05-10T04:49:34.223Z,7.15
2023-05-10T04:52:34.229Z,7.19
2023-05-10T04:55:34.263Z,7.23
2023-05-10T04:58:34.225Z,7.23
2023-05-10T05:01:34.275Z,7.26
2023-05-10T05:04:34.233Z,7.32
2023-05-10T05:07:34.239Z,7.32
2023-05-10T05:10:34.252Z,7.38
2023-05-10T05:13:34.244Z,7.38
2023-05-10T05:16:34.282Z,7.41
2023-05-10T05:19:34.261Z,7.45
2023-05-10T05:22:34.251Z,7.49
2023-05-10T05:25:34.266Z,7.44
2023-05-10T05:28:34.260Z,7.52
2023-05-10T05:31:34.294Z,7.54
2023-05-10T05:34:34.251Z,7.65
2023-05-10T05:37:34.276Z,7.67
2023-05-10T05:40:34.266Z,7.62
2023-05-10T05:43:36.103Z,7.66
2023-05-10T05:46:34.261Z,7.54
2023-05-10T05:49:34.267Z,7.53
2023-05-10T05:52:34.266Z,7.56
2023-05-10T05:55:34.282Z,7.54
2023-05-10T05:58:34.279Z,7.52
2023-05-10T06:01:34.284Z,7.49
2023-05-10T06:04:34.328Z,7.45
2023-05-10T06:07:34.284Z,7.45
2023-05-10T06:10:34.301Z,7.48
2023-05-10T06:13:34.350Z,7.46
2023-05-10T06:16:34.309Z,7.45
2023-05-10T06:19:34.295Z,7.47
2023-05-10T06:22:34.296Z,7.45
2023-05-10T06:25:34.312Z,7.46
2023-05-10T06:28:34.296Z,7.54
2023-05-10T06:31:34.378Z,7.59
2023-05-10T06:34:34.305Z,7.54
2023-05-10T06:37:34.309Z,7.6
2023-05-10T06:40:34.336Z,7.6
2023-05-10T06:43:34.325Z,7.64
2023-05-10T06:46:34.345Z,7.65
2023-05-10T06:49:34.318Z,7.66
2023-05-10T06:52:34.319Z,7.69
2023-05-10T06:55:34.334Z,7.71
2023-05-10T06:58:34.330Z,7.75
2023-05-10T07:01:34.366Z,7.73
2023-05-10T07:04:34.387Z,7.65
2023-05-10T07:07:34.329Z,7.69
2023-05-10T07:10:34.348Z,7.72
2023-05-10T07:13:34.404Z,7.79
2023-05-10T07:16:34.418Z,7.86
2023-05-10T07:19:34.349Z,7.91
2023-05-10T07:22:34.352Z,7.88
2023-05-10T07:25:34.371Z,7.93
2023-05-10T07:28:34.364Z,7.99
2023-05-10T07:31:34.397Z,7.94
2023-05-10T07:34:34.382Z,7.92
2023-05-10T07:37:34.373Z,7.95
2023-05-10T07:40:34.395Z,7.92
2023-05-10T07:43:34.378Z,7.98
2023-05-10T07:46:34.396Z,8.02
2023-05-10T07:49:34.399Z,8.02
2023-05-10T07:52:34.387Z,8.14
2023-05-10T07:55:34.448Z,8.22
2023-05-10T07:58:34.399Z,8.37
2023-05-10T08:01:34.378Z,8.34
2023-05-10T08:04:34.440Z,8.27
2023-05-10T08:07:34.401Z,8.37
2023-05-10T08:10:34.420Z,8.31
2023-05-10T08:13:34.411Z,8.39
2023-05-10T08:16:34.450Z,8.34
2023-05-10T08:19:34.414Z,8.44
2023-05-10T08:22:34.420Z,8.5
2023-05-10T08:25:34.432Z,8.58
2023-05-10T08:28:34.423Z,8.57
2023-05-10T08:31:34.458Z,8.63
2023-05-10T08:34:34.428Z,8.72
2023-05-10T08:37:34.439Z,8.7
2023-05-10T08:40:34.446Z,8.71
2023-05-10T08:43:34.458Z,8.72
2023-05-10T08:46:34.458Z,8.74
2023-05-10T08:49:34.444Z,8.91
2023-05-10T08:52:34.450Z,9.07
2023-05-10T08:55:34.459Z,9.08
2023-05-10T08:58:34.447Z,9.19
2023-05-10T09:01:34.449Z,9.22
2023-05-10T09:04:34.496Z,9.3
2023-05-10T09:07:35.282Z,9.37
2023-05-10T09:10:34.465Z,9.48
2023-05-10T09:13:34.460Z,9.66
2023-05-10T09:16:34.465Z,9.7
2023-05-10T09:19:34.464Z,9.82
2023-05-10T09:22:34.491Z,9.92
2023-05-10T09:25:34.489Z,10.17
2023-05-10T09:28:34.463Z,10.29
2023-05-10T09:31:34.473Z,10.34
2023-05-10T09:34:34.474Z,10.47
2023-05-10T09:37:34.475Z,10.53
2023-05-10T09:40:34.491Z,10.48
2023-05-10T09:43:34.482Z,10.42
2023-05-10T09:46:34.523Z,10.52
2023-05-10T09:49:34.486Z,10.59
2023-05-10T09:52:34.494Z,10.68
2023-05-10T09:55:34.504Z,10.76
2023-05-10T09:58:34.494Z,10.83
2023-05-10T10:01:34.504Z,10.82
2023-05-10T10:04:34.505Z,10.77
2023-05-10T10:07:34.507Z,10.76
2023-05-10T10:10:34.522Z,10.73
2023-05-10T10:13:34.519Z,10.7
2023-05-10T10:16:34.577Z,10.72
2023-05-10T10:19:34.537Z,10.73
2023-05-10T10:22:34.513Z,10.93
2023-05-10T10:25:34.562Z,11.13
2023-05-10T10:28:34.526Z,11.13
2023-05-10T10:31:34.605Z,11.13
2023-05-10T10:34:34.538Z,11.4
2023-05-10T10:37:34.543Z,11.47
2023-05-10T10:40:34.946Z,11.48
2023-05-10T10:43:34.548Z,11.64
2023-05-10T10:46:34.592Z,11.64
2023-05-10T10:49:34.588Z,11.66
2023-05-10T10:52:34.688Z,11.61
2023-05-10T10:55:34.569Z,11.47
2023-05-10T10:58:34.556Z,11.51
2023-05-10T11:01:34.636Z,11.41
2023-05-10T11:04:34.581Z,11.44
2023-05-10T11:07:34.563Z,11.41
2023-05-10T11:10:34.583Z,11.31
2023-05-10T11:13:34.578Z,11.32
2023-05-10T11:16:34.630Z,11.35
2023-05-10T11:19:34.581Z,11.37
2023-05-10T11:22:34.588Z,11.43
2023-05-10T11:25:34.603Z,11.36
2023-05-10T11:28:34.594Z,11.36
2023-05-10T11:31:34.603Z,11.44
2023-05-10T11:34:34.918Z,11.41
2023-05-10T11:37:34.609Z,11.41
2023-05-10T11:40:34.629Z,11.46
2023-05-10T11:43:34.629Z,11.6
2023-05-10T11:46:34.700Z,11.64
2023-05-10T11:49:34.639Z,11.55
2023-05-10T11:52:34.632Z,11.48
2023-05-10T11:55:34.652Z,11.5
2023-05-10T11:58:34.632Z,11.51
2023-05-10T12:01:34.648Z,11.65
2023-05-10T12:04:34.671Z,11.7
2023-05-10T12:07:34.649Z,11.71
2023-05-10T12:10:34.657Z,11.78
2023-05-10T12:13:34.670Z,11.76
2023-05-10T12:16:34.696Z,11.65
2023-05-10T12:19:34.666Z,11.52
2023-05-10T12:22:34.668Z,11.46
2023-05-10T12:25:34.686Z,11.36
2023-05-10T12:28:34.682Z,11.14
2023-05-10T12:31:34.683Z,11
2023-05-10T12:34:34.733Z,11.03
2023-05-10T12:37:34.690Z,11.11
2023-05-10T12:40:34.717Z,11.25
2023-05-10T12:43:34.700Z,11.36
2023-05-10T12:46:34.726Z,11.36
2023-05-10T12:49:34.745Z,11.45
2023-05-10T12:52:34.718Z,11.58
2023-05-10T12:55:34.723Z,11.51
2023-05-10T12:58:35.799Z,11.61
2023-05-10T13:01:34.747Z,11.73
2023-05-10T13:04:34.765Z,11.69
2023-05-10T13:07:34.752Z,11.64
2023-05-10T13:10:34.741Z,11.64
2023-05-10T13:13:34.736Z,11.69
2023-05-10T13:16:34.807Z,11.65
2023-05-10T13:19:34.749Z,11.61
2023-05-10T13:22:40.048Z,11.75
2023-05-10T13:25:34.763Z,11.76
2023-05-10T13:28:34.759Z,11.81
2023-05-10T13:31:34.808Z,11.81
2023-05-10T13:34:34.771Z,11.99
2023-05-10T13:37:34.779Z,11.74
2023-05-10T13:40:34.795Z,11.52
2023-05-10T13:43:34.791Z,11.53
2023-05-10T13:46:34.807Z,11.59
2023-05-10T13:49:34.810Z,11.6
2023-05-10T13:52:34.831Z,11.52
2023-05-10T13:55:34.828Z,11.68
2023-05-10T13:58:34.822Z,11.68
2023-05-10T14:01:34.861Z,11.89
2023-05-10T14:04:34.849Z,11.88
2023-05-10T14:07:34.849Z,11.78
2023-05-10T14:10:34.858Z,11.82
2023-05-10T14:13:34.851Z,11.91
2023-05-10T14:16:34.888Z,11.91
2023-05-10T14:19:34.872Z,11.97
2023-05-10T14:22:34.907Z,11.68
2023-05-10T14:25:34.894Z,11.78
2023-05-10T14:28:34.927Z,11.41
2023-05-10T14:31:34.935Z,11.42
2023-05-10T14:34:34.904Z,11.41
2023-05-10T14:37:34.901Z,11.36
2023-05-10T14:40:34.921Z,11.49
2023-05-10T14:43:34.924Z,11.48
2023-05-10T14:46:34.956Z,11.48
2023-05-10T14:49:34.936Z,11.39
2023-05-10T14:52:34.950Z,11.42
2023-05-10T14:55:34.966Z,11.59
2023-05-10T14:58:34.956Z,11.7
2023-05-10T15:01:34.981Z,11.61
2023-05-10T15:04:34.977Z,11.39
2023-05-10T15:07:34.971Z,11.23
2023-05-10T15:10:35.006Z,11.26
2023-05-10T15:13:34.992Z,11.27
2023-05-10T15:16:36.121Z,11.14
2023-05-10T15:19:35.002Z,10.99
2023-05-10T15:22:35.026Z,11.11
2023-05-10T15:25:35.037Z,11.14
2023-05-10T15:28:35.033Z,11.09
2023-05-10T15:31:35.078Z,11.04
2023-05-10T15:34:36.447Z,10.96
2023-05-10T15:37:35.055Z,10.94
2023-05-10T15:40:35.073Z,11
2023-05-10T15:43:35.074Z,10.94
2023-05-10T15:46:35.106Z,11.03
2023-05-10T15:49:35.090Z,11.04
2023-05-10T15:52:35.111Z,11.15
2023-05-10T15:55:35.107Z,11.11
2023-05-10T15:58:35.112Z,11.11
2023-05-10T16:01:35.182Z,11.03
2023-05-10T16:04:35.129Z,11.12
2023-05-10T16:07:35.146Z,11.12
2023-05-10T16:10:35.164Z,11.12
2023-05-10T16:13:35.157Z,11.15
2023-05-10T16:16:35.210Z,11.05
2023-05-10T16:19:35.180Z,11
2023-05-10T16:22:35.188Z,11.02
2023-05-10T16:25:35.198Z,10.95
2023-05-10T16:28:35.202Z,10.95
2023-05-10T16:31:35.408Z,10.95
2023-05-10T16:34:35.227Z,10.86
2023-05-10T16:37:35.223Z,10.89
2023-05-10T16:40:35.249Z,10.81
2023-05-10T16:43:35.247Z,10.84
2023-05-10T16:46:35.300Z,10.81
2023-05-10T16:49:35.259Z,10.82
2023-05-10T16:52:35.276Z,10.76
2023-05-10T16:55:35.288Z,10.75
2023-05-10T16:58:35.279Z,10.79
2023-05-10T17:01:35.334Z,10.81
2023-05-10T17:04:35.301Z,10.79
2023-05-10T17:07:35.311Z,10.82
2023-05-10T17:10:35.338Z,10.8
2023-05-10T17:13:35.334Z,10.83
2023-05-10T17:16:35.369Z,10.78
2023-05-10T17:19:35.355Z,10.77
2023-05-10T17:22:35.364Z,10.78
2023-05-10T17:25:35.388Z,10.76
2023-05-10T17:28:35.389Z,10.75
2023-05-10T17:31:35.435Z,10.67
2023-05-10T17:34:35.408Z,10.67
2023-05-10T17:37:35.420Z,10.73
2023-05-10T17:40:35.437Z,10.7
2023-05-10T17:43:35.437Z,10.68
2023-05-10T17:46:35.451Z,10.73
2023-05-10T17:49:35.454Z,10.81
2023-05-10T17:52:35.460Z,10.83
2023-05-10T17:55:35.489Z,10.84
2023-05-10T17:58:35.482Z,10.84
2023-05-10T18:01:35.509Z,10.85
2023-05-10T18:04:35.542Z,10.63
2023-05-10T18:07:35.515Z,10.46
2023-05-10T18:10:35.535Z,10.29
2023-05-10T18:13:35.542Z,10.32
2023-05-10T18:16:35.585Z,10.31
2023-05-10T18:19:35.580Z,10.3
2023-05-10T18:22:35.573Z,10.28
2023-05-10T18:25:35.605Z,10.33
2023-05-10T18:28:35.607Z,10.31
2023-05-10T18:31:35.651Z,10.35
2023-05-10T18:34:35.617Z,10.31
2023-05-10T18:37:35.632Z,10.34
2023-05-10T18:40:35.648Z,10.29
2023-05-10T18:43:35.656Z,10.3
2023-05-10T18:46:35.722Z,10.25
2023-05-10T18:49:35.678Z,10.26
2023-05-10T18:52:35.688Z,10.24
2023-05-10T18:55:35.717Z,10.24
2023-05-10T18:58:35.724Z,10.19
2023-05-10T19:01:35.748Z,10.2
2023-05-10T19:04:35.756Z,10.24
2023-05-10T19:07:35.755Z,10.19
2023-05-10T19:10:35.773Z,10.2
2023-05-10T19:13:35.780Z,10.2
2023-05-10T19:16:35.842Z,10.16
2023-05-10T19:19:36.186Z,10.17
2023-05-10T19:22:45.337Z,10.18
2023-05-10T19:25:35.840Z,10.21
2023-05-10T19:28:35.816Z,10.22
2023-05-10T19:31:35.859Z,10.18
2023-05-10T19:34:35.828Z,10.22
2023-05-10T19:37:35.833Z,10.26
2023-05-10T19:40:35.844Z,10.28
2023-05-10T19:43:35.840Z,10.24
2023-05-10T19:46:35.939Z,10.26
2023-05-10T19:49:35.874Z,10.27
2023-05-10T19:52:35.854Z,10.22
2023-05-10T19:55:35.874Z,10.21
2023-05-10T19:58:35.866Z,10.22
2023-05-10T20:01:35.884Z,10.23
2023-05-10T20:04:35.872Z,10.21
2023-05-10T20:07:35.875Z,10.19
2023-05-10T20:10:35.907Z,10.17
2023-05-10T20:13:35.881Z,10.12
2023-05-10T20:16:35.920Z,10.13
2023-05-10T20:19:35.896Z,10.18
2023-05-10T20:22:35.899Z,10.17
2023-05-10T20:25:35.910Z,10.22
2023-05-10T20:28:35.916Z,10.23
2023-05-10T20:31:35.923Z,10.25
2023-05-10T20:34:35.914Z,10.23
2023-05-10T20:37:35.918Z,10.18
2023-05-10T20:40:35.937Z,10.14
2023-05-10T20:43:35.949Z,10.06
2023-05-10T20:46:35.981Z,10.04
2023-05-10T20:49:35.939Z,10.01
2023-05-10T20:52:35.948Z,10
2023-05-10T20:55:35.974Z,9.98
2023-05-10T20:58:35.947Z,10.09
2023-05-10T21:01:36.011Z,10.08
2023-05-10T21:04:35.980Z,10.08
2023-05-10T21:07:35.978Z,10.04
2023-05-10T21:10:36.010Z,10.03
2023-05-10T21:13:35.984Z,9.96
2023-05-10T21:16:36.067Z,9.94
2023-05-10T21:19:35.996Z,9.93
2023-05-10T21:22:36.011Z,9.89
2023-05-10T21:25:36.011Z,9.91
2023-05-10T21:28:36.922Z,9.86
2023-05-10T21:31:36.022Z,9.81
2023-05-10T21:34:36.012Z,9.85
2023-05-10T21:37:36.019Z,9.79
2023-05-10T21:40:36.029Z,9.74
2023-05-10T21:43:36.021Z,9.75
2023-05-10T21:46:36.024Z,9.71
2023-05-10T21:49:36.026Z,9.72
2023-05-10T21:52:36.033Z,9.76
2023-05-10T21:55:36.047Z,9.7
2023-05-10T21:58:36.040Z,9.79
2023-05-10T22:01:36.063Z,9.78
2023-05-10T22:04:36.045Z,9.8
2023-05-10T22:07:36.048Z,9.81
2023-05-10T22:10:36.064Z,9.8
2023-05-10T22:13:36.059Z,9.86
2023-05-10T22:16:36.069Z,9.88
2023-05-10T22:19:36.067Z,9.96
2023-05-10T22:22:36.070Z,9.96
2023-05-10T22:25:36.084Z,9.96
2023-05-10T22:28:36.083Z,10.02
2023-05-10T22:31:36.176Z,10.02
2023-05-10T22:34:36.096Z,10
2023-05-10T22:37:36.095Z,9.92
2023-05-10T22:40:36.112Z,9.92
2023-05-10T22:43:36.102Z,9.93
2023-05-10T22:46:36.128Z,9.93
2023-05-10T22:49:36.117Z,9.87
2023-05-10T22:52:36.114Z,9.87
2023-05-10T22:55:36.127Z,9.86
2023-05-10T22:58:36.125Z,9.85
2023-05-10T23:01:36.139Z,9.86
2023-05-10T23:04:36.141Z,9.86
2023-05-10T23:07:36.128Z,9.84
2023-05-10T23:10:36.142Z,9.9
2023-05-10T23:13:36.135Z,9.93
2023-05-10T23:16:36.199Z,9.94
2023-05-10T23:19:36.138Z,9.96
2023-05-10T23:22:36.145Z,10.06
2023-05-10T23:25:36.161Z,10.07
2023-05-10T23:28:36.153Z,10.07
2023-05-10T23:31:36.172Z,10.06
2023-05-10T23:34:36.158Z,10.03
2023-05-10T23:37:36.162Z,10.03
2023-05-10T23:40:36.178Z,10.06
2023-05-10T23:43:36.178Z,10.07
2023-05-10T23:46:36.193Z,10.02
2023-05-10T23:49:36.189Z,10
2023-05-10T23:52:36.205Z,9.99
2023-05-10T23:55:36.207Z,10
2023-05-10T23:58:36.206Z,9.93
